Valle Di Nervion — IBPC — position and weather

sailwx.info

Track history (hours):
 
Tides and Currents Weather Stations Pressure Air Temp Water Temp Dewpoint Dewpoint Depression Visibility Wind Speed Wind Dir Waves Ship Positions

Valle Di Nervion

Last reported at 2018-Feb-23 23:00 UTC. Time now 2018-Feb-24 00:39 UTC.
Position N 37°54' E 023°03'.

Length 176 m; draft 7.9 m.

Type: Ship. MMSI: 247109500.

Date/timePositionNaut miles runAvg speedWind from/ knotsBaromVisibWave heightAir tempDewpointWater temp
2018-Feb-23 23:00N 37°54' E 023°03'0 0.0
2018-Feb-23 22:30N 37°54' E 023°03'0 0.0
2018-Feb-23 22:00N 37°54' E 023°03'0 0.1
2018-Feb-23 21:30N 37°54' E 023°03'0 0.1
2018-Feb-23 21:00N 37°54' E 023°03'0 0.0
2018-Feb-23 20:30N 37°54' E 023°03'0 0.2
2018-Feb-23 20:00N 37°54' E 023°03'0 0.1
2018-Feb-23 19:30N 37°54' E 023°03'0 0.0
2018-Feb-23 19:00N 37°54' E 023°03'0 0.0
2018-Feb-23 18:30N 37°54' E 023°03'0 0.0
2018-Feb-23 18:00N 37°54' E 023°03'0 0.1
2018-Feb-23 17:30N 37°54' E 023°03'0 0.0
2018-Feb-23 17:00N 37°54' E 023°03'0 0.0
2018-Feb-23 16:30N 37°54' E 023°03'0 0.0
2018-Feb-23 16:00N 37°54' E 023°03'0 0.0
2018-Feb-23 15:30N 37°54' E 023°03'0 0.0
2018-Feb-23 15:00N 37°54' E 023°03'0 0.0
2018-Feb-23 14:30N 37°54' E 023°03'0 0.0
2018-Feb-23 14:00N 37°54' E 023°03'0 0.0
2018-Feb-23 13:30N 37°54' E 023°03'0 0.0
2018-Feb-23 13:00N 37°54' E 023°03'0 0.0
2018-Feb-23 12:30N 37°54' E 023°03'0 0.0
2018-Feb-23 12:00N 37°54' E 023°03'0 0.1
2018-Feb-23 11:30N 37°54' E 023°03'0 0.0
2018-Feb-23 11:00N 37°54' E 023°03'0 0.2
2018-Feb-23 10:30N 37°54' E 023°03'0 0.2
2018-Feb-23 10:00N 37°54' E 023°04'0 0.1
2018-Feb-23 09:30N 37°54' E 023°03'0 0.0
2018-Feb-23 09:00N 37°54' E 023°03'0 0.0
2018-Feb-23 08:30N 37°54' E 023°03'0 0.0
2018-Feb-23 08:00N 37°54' E 023°03'0 0.1
2018-Feb-23 07:30N 37°54' E 023°04'0 0.0
2018-Feb-23 07:00N 37°54' E 023°04'0 0.1
2018-Feb-23 06:30N 37°54' E 023°03'0 0.0
2018-Feb-23 06:00N 37°54' E 023°03'0 0.1
2018-Feb-23 05:30N 37°54' E 023°04'0 0.0
2018-Feb-23 05:00N 37°54' E 023°04'0 0.0
2018-Feb-23 04:30N 37°54' E 023°04'0 0.0
2018-Feb-23 04:00N 37°54' E 023°04'0 0.0
2018-Feb-23 03:30N 37°54' E 023°04'0 0.0
2018-Feb-23 03:00N 37°54' E 023°04'0 0.1
2018-Feb-23 02:30N 37°54' E 023°03'0 0.0
2018-Feb-23 02:00N 37°54' E 023°03'0 0.1
2018-Feb-23 01:30N 37°54' E 023°04'0 0.1
2018-Feb-23 01:00N 37°54' E 023°03'0 0.0
2018-Feb-23 00:30N 37°54' E 023°04'0 0.0
2018-Feb-23 00:00N 37°54' E 023°04'0 0.1
2018-Feb-22 23:30N 37°54' E 023°03'0 0.1
2018-Feb-22 23:00N 37°54' E 023°03'0 0.0
2018-Feb-22 22:30N 37°54' E 023°03'0 0.2
2018-Feb-22 22:00N 37°54' E 023°04'0 0.2
2018-Feb-22 21:30N 37°54' E 023°03'0 0.0
2018-Feb-22 21:00N 37°54' E 023°03'0 0.0
2018-Feb-22 20:30N 37°54' E 023°03'0 0.1
2018-Feb-22 20:00N 37°54' E 023°03'0 0.0
2018-Feb-22 19:30N 37°54' E 023°03'0 0.2
2018-Feb-22 19:00N 37°54' E 023°03'0 0.2
2018-Feb-22 18:30N 37°54' E 023°03'0 0.0
2018-Feb-22 18:00N 37°54' E 023°03'0 0.0
2018-Feb-22 17:30N 37°54' E 023°03'0 0.1
2018-Feb-22 17:00N 37°54' E 023°03'0 0.0
2018-Feb-22 16:30N 37°54' E 023°03'0 0.0
2018-Feb-22 16:01N 37°54' E 023°03'0 0.6
2018-Feb-22 15:31N 37°53' E 023°04'2 5.0
2018-Feb-22 15:01N 37°53' E 023°07'4 8.7
2018-Feb-22 14:31N 37°53' E 023°12'5 9.9
2018-Feb-22 14:01N 37°52' E 023°18'5 9.8
2018-Feb-22 13:31N 37°51' E 023°25'5 9.9
2018-Feb-22 13:00N 37°50' E 023°31'5 9.5
2018-Feb-22 12:30N 37°51' E 023°37'4 8.4
2018-Feb-22 12:00N 37°48' E 023°40'5 9.8
2018-Feb-22 11:31N 37°44' E 023°43'5 9.5
2018-Feb-22 11:01N 37°39' E 023°45'5 9.8
2018-Feb-22 10:31N 37°34' E 023°44'5 9.9
2018-Feb-22 09:59N 37°29' E 023°43'6 9.8
2018-Feb-22 09:22N 37°23' E 023°42'4 8.2
2018-Feb-22 08:52N 37°19' E 023°41'2 6.1
2018-Feb-22 08:29N 37°17' E 023°40'1 1.1
2018-Feb-22 07:55N 37°16' E 023°41'0 0.8
2018-Feb-22 07:22N 37°16' E 023°41'0 0.8
2018-Feb-22 06:51N 37°16' E 023°41'0 0.4
2018-Feb-22 06:28N 37°16' E 023°40'  
2018-Feb-18 23:09N 44°31' E 013°39'1 8.2
2018-Feb-18 23:00N 44°32' E 013°38'4 7.6
2018-Feb-18 22:30N 44°35' E 013°35'4 7.5
2018-Feb-18 22:00N 44°38' E 013°32'4 7.7
2018-Feb-18 21:30N 44°42' E 013°29'4 8.0
2018-Feb-18 21:01N 44°45' E 013°26'4 8.4
2018-Feb-18 20:31N 44°48' E 013°23'4 8.5
2018-Feb-18 20:00N 44°52' E 013°20'4 8.5
2018-Feb-18 19:30N 44°56' E 013°17'5 9.1
2018-Feb-18 19:00N 44°59' E 013°13'5 9.2
2018-Feb-18 18:30N 45°03' E 013°10'5 9.3
2018-Feb-18 18:01N 45°07' E 013°06'5 9.3
2018-Feb-18 17:30N 45°12' E 013°04'5 9.5
2018-Feb-18 17:01N 45°16' E 013°02'5 9.4
2018-Feb-18 16:30N 45°21' E 013°01'5 9.3
2018-Feb-18 16:00N 45°25' E 013°05'510.5
2018-Feb-18 15:30N 45°28' E 013°10'510.8
2018-Feb-18 15:00N 45°32' E 013°16'510.6
2018-Feb-18 14:30N 45°34' E 013°23'510.7
2018-Feb-18 14:00N 45°37' E 013°30'510.6
2018-Feb-18 13:31N 45°38' E 013°37'2 4.5
2018-Feb-18 13:00N 45°38' E 013°40'1 1.6
2018-Feb-18 12:30N 45°38' E 013°41'1 1.7
2018-Feb-18 11:58N 45°37' E 013°42'3 6.2
2018-Feb-18 11:30N 45°37' E 013°46'0 0.7
2018-Feb-18 10:59N 45°37' E 013°47'0 0.0
2018-Feb-18 10:29N 45°37' E 013°47'0 0.0
2018-Feb-18 09:59N 45°37' E 013°47'0 0.0
2018-Feb-18 09:29N 45°37' E 013°47'0 0.0
2018-Feb-18 08:59N 45°37' E 013°47'0 0.0
2018-Feb-18 08:29N 45°37' E 013°47'0 0.0
2018-Feb-18 07:59N 45°37' E 013°47'0 0.0
2018-Feb-18 07:29N 45°37' E 013°47'0 0.0
2018-Feb-18 06:53N 45°37' E 013°47'0 0.0
2018-Feb-18 06:29N 45°37' E 013°47'0 0.0
2018-Feb-18 05:56N 45°37' E 013°47'0 0.0
2018-Feb-18 05:29N 45°37' E 013°47'0 0.0
2018-Feb-18 04:59N 45°37' E 013°47'0 0.0
2018-Feb-18 04:29N 45°37' E 013°47'0 0.0
2018-Feb-18 03:59N 45°37' E 013°47'0 0.0
2018-Feb-18 03:29N 45°37' E 013°47'0 0.0
2018-Feb-18 02:59N 45°37' E 013°47'0 0.0
2018-Feb-18 02:17N 45°37' E 013°47'0 0.0
2018-Feb-18 01:53N 45°37' E 013°47'0 0.0
2018-Feb-18 01:29N 45°37' E 013°47'0 0.0
2018-Feb-18 00:59N 45°37' E 013°47'0 0.0
2018-Feb-18 00:23N 45°37' E 013°47'0 0.0
2018-Feb-17 23:56N 45°37' E 013°47'0 0.0
2018-Feb-17 23:29N 45°37' E 013°47'0 0.0
2018-Feb-17 22:53N 45°37' E 013°47'0 0.0
2018-Feb-17 22:26N 45°37' E 013°47'0 0.0
2018-Feb-17 21:56N 45°37' E 013°47'0 0.0
2018-Feb-17 21:29N 45°37' E 013°47'0 0.0
2018-Feb-17 20:59N 45°37' E 013°47'0 0.0
2018-Feb-17 20:29N 45°37' E 013°47'0 0.0
2018-Feb-17 19:59N 45°37' E 013°47'0 0.0
2018-Feb-17 19:29N 45°37' E 013°47'0 0.0
2018-Feb-17 18:59N 45°37' E 013°47'0 0.0
2018-Feb-17 18:29N 45°37' E 013°47'0 0.0
2018-Feb-17 17:59N 45°37' E 013°47'0 0.0
2018-Feb-17 17:29N 45°37' E 013°47'0 0.0
2018-Feb-17 16:59N 45°37' E 013°47'0 0.0
2018-Feb-17 16:29N 45°37' E 013°47'0 0.0
2018-Feb-17 15:59N 45°37' E 013°47'0 0.0
2018-Feb-17 15:29N 45°37' E 013°47'0 0.0
2018-Feb-17 14:59N 45°37' E 013°47'0 0.0
2018-Feb-17 14:26N 45°37' E 013°47'0 0.0
2018-Feb-17 13:59N 45°37' E 013°47'0 0.0
2018-Feb-17 13:29N 45°37' E 013°47'0 0.0
2018-Feb-17 12:59N 45°37' E 013°47'0 0.0
2018-Feb-17 12:29N 45°37' E 013°47'0 0.0
2018-Feb-17 12:00N 45°37' E 013°47'0 0.4
2018-Feb-17 11:30N 45°37' E 013°46'3 5.3
2018-Feb-17 11:00N 45°37' E 013°43'1 1.8
2018-Feb-17 10:30N 45°38' E 013°42'0 0.1
2018-Feb-17 10:00N 45°38' E 013°42'0 0.1
2018-Feb-17 09:30N 45°38' E 013°42'0 0.0
2018-Feb-17 09:00N 45°38' E 013°42'0 0.0
2018-Feb-17 08:30N 45°38' E 013°42'0 0.0
2018-Feb-17 08:00N 45°38' E 013°42'0 0.1
2018-Feb-17 07:31N 45°38' E 013°42'1 1.4
2018-Feb-17 07:01N 45°38' E 013°41'4 7.0
2018-Feb-17 06:31N 45°37' E 013°36'612.4
2018-Feb-17 06:01N 45°33' E 013°29'612.7
2018-Feb-17 05:30N 45°30' E 013°21'612.6
2018-Feb-17 05:00N 45°26' E 013°15'611.3
2018-Feb-17 04:31N 45°21' E 013°12'612.6
2018-Feb-17 04:01N 45°15' E 013°14'612.7
2018-Feb-17 03:30N 45°08' E 013°16'612.6
2018-Feb-17 03:00N 45°02' E 013°18'612.2
2018-Feb-17 02:30N 44°57' E 013°22'612.3
2018-Feb-17 02:00N 44°52' E 013°27'612.3
2018-Feb-17 01:31N 44°46' E 013°31'612.1
2018-Feb-17 01:00N 44°41' E 013°36'2412.3
2018-Feb-16 23:05N 44°22' E 013°54'112.3
2018-Feb-16 23:00N 44°21' E 013°55'  
2018-Feb-14 07:23N 37°44' E 024°16'  
Track history (hours):
 
Tides and Currents Weather Stations Pressure Air Temp Water Temp Dewpoint Dewpoint Depression Visibility Wind Speed Wind Dir Waves Ship Positions

Valle Di Nervion

Last reported at 2018-Feb-23 23:00 UTC. Time now 2018-Feb-24 00:39 UTC.
Position N 37°54' E 023°03'.

Length 176 m; draft 7.9 m.

Type: Ship. MMSI: 247109500.

Date/timePositionNaut miles runAvg speedWind from/ knotsBaromVisibWave heightAir tempDewpointWater temp
2018-Feb-23 23:00N 37°54' E 023°03'0 0.0
2018-Feb-23 22:30N 37°54' E 023°03'0 0.0
2018-Feb-23 22:00N 37°54' E 023°03'0 0.1
2018-Feb-23 21:30N 37°54' E 023°03'0 0.1
2018-Feb-23 21:00N 37°54' E 023°03'0 0.0
2018-Feb-23 20:30N 37°54' E 023°03'0 0.2
2018-Feb-23 20:00N 37°54' E 023°03'0 0.1
2018-Feb-23 19:30N 37°54' E 023°03'0 0.0
2018-Feb-23 19:00N 37°54' E 023°03'0 0.0
2018-Feb-23 18:30N 37°54' E 023°03'0 0.0
2018-Feb-23 18:00N 37°54' E 023°03'0 0.1
2018-Feb-23 17:30N 37°54' E 023°03'0 0.0
2018-Feb-23 17:00N 37°54' E 023°03'0 0.0
2018-Feb-23 16:30N 37°54' E 023°03'0 0.0
2018-Feb-23 16:00N 37°54' E 023°03'0 0.0
2018-Feb-23 15:30N 37°54' E 023°03'0 0.0
2018-Feb-23 15:00N 37°54' E 023°03'0 0.0
2018-Feb-23 14:30N 37°54' E 023°03'0 0.0
2018-Feb-23 14:00N 37°54' E 023°03'0 0.0
2018-Feb-23 13:30N 37°54' E 023°03'0 0.0
2018-Feb-23 13:00N 37°54' E 023°03'0 0.0
2018-Feb-23 12:30N 37°54' E 023°03'0 0.0
2018-Feb-23 12:00N 37°54' E 023°03'0 0.1
2018-Feb-23 11:30N 37°54' E 023°03'0 0.0
2018-Feb-23 11:00N 37°54' E 023°03'0 0.2
2018-Feb-23 10:30N 37°54' E 023°03'0 0.2
2018-Feb-23 10:00N 37°54' E 023°04'0 0.1
2018-Feb-23 09:30N 37°54' E 023°03'0 0.0
2018-Feb-23 09:00N 37°54' E 023°03'0 0.0
2018-Feb-23 08:30N 37°54' E 023°03'0 0.0
2018-Feb-23 08:00N 37°54' E 023°03'0 0.1
2018-Feb-23 07:30N 37°54' E 023°04'0 0.0
2018-Feb-23 07:00N 37°54' E 023°04'0 0.1
2018-Feb-23 06:30N 37°54' E 023°03'0 0.0
2018-Feb-23 06:00N 37°54' E 023°03'0 0.1
2018-Feb-23 05:30N 37°54' E 023°04'0 0.0
2018-Feb-23 05:00N 37°54' E 023°04'0 0.0
2018-Feb-23 04:30N 37°54' E 023°04'0 0.0
2018-Feb-23 04:00N 37°54' E 023°04'0 0.0
2018-Feb-23 03:30N 37°54' E 023°04'0 0.0
2018-Feb-23 03:00N 37°54' E 023°04'0 0.1
2018-Feb-23 02:30N 37°54' E 023°03'0 0.0
2018-Feb-23 02:00N 37°54' E 023°03'0 0.1
2018-Feb-23 01:30N 37°54' E 023°04'0 0.1
2018-Feb-23 01:00N 37°54' E 023°03'0 0.0
2018-Feb-23 00:30N 37°54' E 023°04'0 0.0
2018-Feb-23 00:00N 37°54' E 023°04'0 0.1
2018-Feb-22 23:30N 37°54' E 023°03'0 0.1
2018-Feb-22 23:00N 37°54' E 023°03'0 0.0
2018-Feb-22 22:30N 37°54' E 023°03'0 0.2
2018-Feb-22 22:00N 37°54' E 023°04'0 0.2
2018-Feb-22 21:30N 37°54' E 023°03'0 0.0
2018-Feb-22 21:00N 37°54' E 023°03'0 0.0
2018-Feb-22 20:30N 37°54' E 023°03'0 0.1
2018-Feb-22 20:00N 37°54' E 023°03'0 0.0
2018-Feb-22 19:30N 37°54' E 023°03'0 0.2
2018-Feb-22 19:00N 37°54' E 023°03'0 0.2
2018-Feb-22 18:30N 37°54' E 023°03'0 0.0
2018-Feb-22 18:00N 37°54' E 023°03'0 0.0
2018-Feb-22 17:30N 37°54' E 023°03'0 0.1
2018-Feb-22 17:00N 37°54' E 023°03'0 0.0
2018-Feb-22 16:30N 37°54' E 023°03'0 0.0
2018-Feb-22 16:01N 37°54' E 023°03'0 0.6
2018-Feb-22 15:31N 37°53' E 023°04'2 5.0
2018-Feb-22 15:01N 37°53' E 023°07'4 8.7
2018-Feb-22 14:31N 37°53' E 023°12'5 9.9
2018-Feb-22 14:01N 37°52' E 023°18'5 9.8
2018-Feb-22 13:31N 37°51' E 023°25'5 9.9
2018-Feb-22 13:00N 37°50' E 023°31'5 9.5
2018-Feb-22 12:30N 37°51' E 023°37'4 8.4
2018-Feb-22 12:00N 37°48' E 023°40'5 9.8
2018-Feb-22 11:31N 37°44' E 023°43'5 9.5
2018-Feb-22 11:01N 37°39' E 023°45'5 9.8
2018-Feb-22 10:31N 37°34' E 023°44'5 9.9
2018-Feb-22 09:59N 37°29' E 023°43'6 9.8
2018-Feb-22 09:22N 37°23' E 023°42'4 8.2
2018-Feb-22 08:52N 37°19' E 023°41'2 6.1
2018-Feb-22 08:29N 37°17' E 023°40'1 1.1
2018-Feb-22 07:55N 37°16' E 023°41'0 0.8
2018-Feb-22 07:22N 37°16' E 023°41'0 0.8
2018-Feb-22 06:51N 37°16' E 023°41'0 0.4
2018-Feb-22 06:28N 37°16' E 023°40'  
2018-Feb-18 23:09N 44°31' E 013°39'1 8.2
2018-Feb-18 23:00N 44°32' E 013°38'4 7.6
2018-Feb-18 22:30N 44°35' E 013°35'4 7.5
2018-Feb-18 22:00N 44°38' E 013°32'4 7.7
2018-Feb-18 21:30N 44°42' E 013°29'4 8.0
2018-Feb-18 21:01N 44°45' E 013°26'4 8.4
2018-Feb-18 20:31N 44°48' E 013°23'4 8.5
2018-Feb-18 20:00N 44°52' E 013°20'4 8.5
2018-Feb-18 19:30N 44°56' E 013°17'5 9.1
2018-Feb-18 19:00N 44°59' E 013°13'5 9.2
2018-Feb-18 18:30N 45°03' E 013°10'5 9.3
2018-Feb-18 18:01N 45°07' E 013°06'5 9.3
2018-Feb-18 17:30N 45°12' E 013°04'5 9.5
2018-Feb-18 17:01N 45°16' E 013°02'5 9.4
2018-Feb-18 16:30N 45°21' E 013°01'5 9.3
2018-Feb-18 16:00N 45°25' E 013°05'510.5
2018-Feb-18 15:30N 45°28' E 013°10'510.8
2018-Feb-18 15:00N 45°32' E 013°16'510.6
2018-Feb-18 14:30N 45°34' E 013°23'510.7
2018-Feb-18 14:00N 45°37' E 013°30'510.6
2018-Feb-18 13:31N 45°38' E 013°37'2 4.5
2018-Feb-18 13:00N 45°38' E 013°40'1 1.6
2018-Feb-18 12:30N 45°38' E 013°41'1 1.7
2018-Feb-18 11:58N 45°37' E 013°42'3 6.2
2018-Feb-18 11:30N 45°37' E 013°46'0 0.7
2018-Feb-18 10:59N 45°37' E 013°47'0 0.0
2018-Feb-18 10:29N 45°37' E 013°47'0 0.0
2018-Feb-18 09:59N 45°37' E 013°47'0 0.0
2018-Feb-18 09:29N 45°37' E 013°47'0 0.0
2018-Feb-18 08:59N 45°37' E 013°47'0 0.0
2018-Feb-18 08:29N 45°37' E 013°47'0 0.0
2018-Feb-18 07:59N 45°37' E 013°47'0 0.0
2018-Feb-18 07:29N 45°37' E 013°47'0 0.0
2018-Feb-18 06:53N 45°37' E 013°47'0 0.0
2018-Feb-18 06:29N 45°37' E 013°47'0 0.0
2018-Feb-18 05:56N 45°37' E 013°47'0 0.0
2018-Feb-18 05:29N 45°37' E 013°47'0 0.0
2018-Feb-18 04:59N 45°37' E 013°47'0 0.0
2018-Feb-18 04:29N 45°37' E 013°47'0 0.0
2018-Feb-18 03:59N 45°37' E 013°47'0 0.0
2018-Feb-18 03:29N 45°37' E 013°47'0 0.0
2018-Feb-18 02:59N 45°37' E 013°47'0 0.0
2018-Feb-18 02:17N 45°37' E 013°47'0 0.0
2018-Feb-18 01:53N 45°37' E 013°47'0 0.0
2018-Feb-18 01:29N 45°37' E 013°47'0 0.0
2018-Feb-18 00:59N 45°37' E 013°47'0 0.0
2018-Feb-18 00:23N 45°37' E 013°47'0 0.0
2018-Feb-17 23:56N 45°37' E 013°47'0 0.0
2018-Feb-17 23:29N 45°37' E 013°47'0 0.0
2018-Feb-17 22:53N 45°37' E 013°47'0 0.0
2018-Feb-17 22:26N 45°37' E 013°47'0 0.0
2018-Feb-17 21:56N 45°37' E 013°47'0 0.0
2018-Feb-17 21:29N 45°37' E 013°47'0 0.0
2018-Feb-17 20:59N 45°37' E 013°47'0 0.0
2018-Feb-17 20:29N 45°37' E 013°47'0 0.0
2018-Feb-17 19:59N 45°37' E 013°47'0 0.0
2018-Feb-17 19:29N 45°37' E 013°47'0 0.0
2018-Feb-17 18:59N 45°37' E 013°47'0 0.0
2018-Feb-17 18:29N 45°37' E 013°47'0 0.0
2018-Feb-17 17:59N 45°37' E 013°47'0 0.0
2018-Feb-17 17:29N 45°37' E 013°47'0 0.0
2018-Feb-17 16:59N 45°37' E 013°47'0 0.0
2018-Feb-17 16:29N 45°37' E 013°47'0 0.0
2018-Feb-17 15:59N 45°37' E 013°47'0 0.0
2018-Feb-17 15:29N 45°37' E 013°47'0 0.0
2018-Feb-17 14:59N 45°37' E 013°47'0 0.0
2018-Feb-17 14:26N 45°37' E 013°47'0 0.0
2018-Feb-17 13:59N 45°37' E 013°47'0 0.0
2018-Feb-17 13:29N 45°37' E 013°47'0 0.0
2018-Feb-17 12:59N 45°37' E 013°47'0 0.0
2018-Feb-17 12:29N 45°37' E 013°47'0 0.0
2018-Feb-17 12:00N 45°37' E 013°47'0 0.4
2018-Feb-17 11:30N 45°37' E 013°46'3 5.3
2018-Feb-17 11:00N 45°37' E 013°43'1 1.8
2018-Feb-17 10:30N 45°38' E 013°42'0 0.1
2018-Feb-17 10:00N 45°38' E 013°42'0 0.1
2018-Feb-17 09:30N 45°38' E 013°42'0 0.0
2018-Feb-17 09:00N 45°38' E 013°42'0 0.0
2018-Feb-17 08:30N 45°38' E 013°42'0 0.0
2018-Feb-17 08:00N 45°38' E 013°42'0 0.1
2018-Feb-17 07:31N 45°38' E 013°42'1 1.4
2018-Feb-17 07:01N 45°38' E 013°41'4 7.0
2018-Feb-17 06:31N 45°37' E 013°36'612.4
2018-Feb-17 06:01N 45°33' E 013°29'612.7
2018-Feb-17 05:30N 45°30' E 013°21'612.6
2018-Feb-17 05:00N 45°26' E 013°15'611.3
2018-Feb-17 04:31N 45°21' E 013°12'612.6
2018-Feb-17 04:01N 45°15' E 013°14'612.7
2018-Feb-17 03:30N 45°08' E 013°16'612.6
2018-Feb-17 03:00N 45°02' E 013°18'612.2
2018-Feb-17 02:30N 44°57' E 013°22'612.3
2018-Feb-17 02:00N 44°52' E 013°27'612.3
2018-Feb-17 01:31N 44°46' E 013°31'612.1
2018-Feb-17 01:00N 44°41' E 013°36'2412.3
2018-Feb-16 23:05N 44°22' E 013°54'112.3
2018-Feb-16 23:00N 44°21' E 013°55'  
2018-Feb-14 07:23N 37°44' E 024°16'  

Dump ship's entire track history